Flight Track Log - Related Links

Times and Time Zones

All times are in EDT time to prevent confusion due to time zone crossing. See the AAR8737 flight status page for this flight to view local times or setup timezone preferences in your user account.

Time Position Orientation Groundspeed Altitude Reporting Facility
EDT Latitude Longitude Course Direction KTS MPH feet Rate Location/Type
Fri 04:34:45 AM 37.4980 126.8660 147° Southeast 208 239 4,100  Level FlightAware ADS-B
Fri 04:34:50 AM 37.4940 126.8690 149° Southeast 215 247 4,200 1,920 Climbing FlightAware ADS-B
Fri 04:35:10 AM 37.4730 126.8770 163° South 240 276 4,900 1,909 Climbing FlightAware ADS-B
Fri 04:35:34 AM 37.4490 126.8870 162° South 267 307 5,600 1,733 Climbing FlightAware ADS-B
Fri 04:35:55 AM 37.4220 126.8980 162° South 274 315 6,200 2,333 Climbing FlightAware ADS-B
Fri 04:36:10 AM 37.4020 126.9030 169° South 279 321 7,000 3,429 Climbing FlightAware ADS-B
Fri 04:36:30 AM 37.3750 126.9010 183° South 274 315 8,200 2,923 Climbing FlightAware ADS-B
Fri 04:36:49 AM 37.3500 126.8980 185° South 288 331 8,900 2,250 Climbing FlightAware ADS-B
Fri 04:37:10 AM 37.3210 126.8950 185° South 292 336 9,700 1,031 Climbing FlightAware ADS-B
Fri 04:37:53 AM 37.2740 126.8900 185° South 291 335 10,000 304 Climbing FlightAware ADS-B
Fri 04:38:29 AM 37.2240 126.8840 185° South 291 335 10,100 83 Climbing FlightAware ADS-B
Fri 04:39:05 AM 37.1830 126.8790 186° South 291 335 10,100  Level FlightAware ADS-B
Fri 04:39:41 AM 37.1420 126.8750 184° South 291 335 10,100  Level FlightAware ADS-B
Fri 04:42:00 AM 36.9572 126.9361 165° South  Level Estimated
Fri 04:43:00 AM 36.8774 126.9624 165° South  Level Estimated
Fri 04:44:00 AM 36.7977 126.9886 165° South  Level Estimated
Fri 04:45:00 AM 36.7179 127.0148 165° South  Level Estimated
Fri 04:46:00 AM 36.6381 127.0409 165° South  Level Estimated
Fri 04:47:00 AM 36.5583 127.0670 165° South  Level Estimated
Fri 04:48:00 AM 36.4785 127.0930 165° South  Level Estimated
Fri 04:49:00 AM 36.3987 127.1190 165° South  Level Estimated
Fri 04:50:00 AM 36.3189 127.1449 165° South  Level Estimated
Fri 04:51:00 AM 36.2391 127.1707 165° South  Level Estimated
Fri 04:52:00 AM 36.1592 127.1965 165° South  Level Estimated
Fri 04:53:00 AM 36.0794 127.2223 165° South  Level Estimated
Fri 04:54:00 AM 35.9996 127.2480 165° South  Level Estimated
Fri 04:55:00 AM 35.9197 127.2736 165° South  Level Estimated
Fri 04:56:00 AM 35.8399 127.2992 165° South  Level Estimated
Fri 04:57:00 AM 35.7600 127.3247 165° South  Level Estimated
Fri 04:58:00 AM 35.6802 127.3502 165° South  Level Estimated
Fri 04:59:00 AM 35.6003 127.3757 165° South  Level Estimated
Fri 05:00:00 AM 35.5205 127.4011 165° South  Level Estimated
Fri 05:01:00 AM 35.4406 127.4264 166° South  Level Estimated
Fri 05:02:00 AM 35.3607 127.4517 166° South  Level Estimated
Fri 05:03:00 AM 35.2808 127.4769 166° South  Level Estimated
Fri 05:04:00 AM 35.2009 127.5021 166° South  Level Estimated
Fri 05:05:00 AM 35.1210 127.5273 166° South  Level Estimated
Fri 05:06:00 AM 35.0411 127.5523 166° South  Level Estimated
Fri 05:07:00 AM 34.9612 127.5774 166° South  Level Estimated
Fri 05:08:00 AM 34.8813 127.6024 166° South  Level Estimated
Fri 05:09:00 AM 34.8398 127.6153 166° South  Level Estimated
Fri 05:10:00 AM 34.8398 127.6153 180° South  Level Estimated
Fri 05:11:00 AM 34.8398 127.6153 180° South  Level Estimated
Fri 05:12:00 AM 34.8398 127.6153 180° South  Level Estimated
Fri 05:13:00 AM 34.8398 127.6153 180° South  Level Estimated
Fri 05:14:00 AM 34.8398 127.6153 180° South  Level Estimated
Fri 05:15:00 AM 34.8398 127.6153 180° South  Level Estimated
Fri 05:16:00 AM 34.8398 127.6153 180° South  Level Estimated
Fri 05:17:00 AM 34.8398 127.6153 180° South  Level Estimated
Fri 05:18:00 AM 34.8398 127.6153 180° South  Level Estimated
Fri 05:19:00 AM 34.8398 127.6153 180° South  Level Estimated
Fri 05:20:00 AM 34.8398 127.6153 180° South  Level Estimated

Login

Don't have an account? Register now (free) for customized features, flight alerts, and more!